Terminal Aerodrome Forecast
Issued by NWS

Home | Current Version | Previous Version | Text Only | Print | Product List | Glossary On
Versions: 1 2 3 4 5 6 7 8 9 10 11 12 13 14 15 16 17 18 19 20
000
FTUS46 KSEW 010500
TAFOLM
TAF
KOLM 010540Z 0106/0206 VRB03KT P6SM BKN035
     FM010900 00000KT 6SM BR SCT015
      TEMPO 0109/0112 4SM BR BKN015
     FM011200 00000KT 2SM BR OVC007
     FM011800 22005KT P6SM OVC015
     FM012000 27009KT P6SM SCT035 BKN200
     FM020100 VRB03KT P6SM BKN200=

USA.gov is the U.S. government's official web portal to all federal, state and local government web resources and services.